Time;durP1;ratioP1;P1;durP2;ratioP2;P2;SDS_P1;SDS_P2;PMS_P1;PMS_P2;Temp;Humidity;BMP_temperature;BMP_pressure;BME280_temperature;BME280_humidity;BME280_pressure;Samples;Min_cycle;Max_cycle;Signal;HPM_P1;HPM_P2
2023/05/20 00:01:32;;;;;;;9.93;3.70;;;;;;;-143.48;67.10;118439.88;5054135;28;20063;-33
2023/05/20 00:03:57;;;;;;;13.30;3.72;;;;;;;-143.48;67.74;118439.88;5053940;28;20039;-33
2023/05/20 00:06:23;;;;;;;13.20;3.80;;;;;;;-143.48;67.74;118439.88;5053888;28;20055;-33
2023/05/20 00:08:48;;;;;;;12.65;4.47;;;;;;;-143.48;67.84;118439.88;5053597;28;20441;-33
2023/05/20 00:11:13;;;;;;;9.75;3.65;;;;;;;-143.48;67.65;118439.88;5053805;28;20075;-33
2023/05/20 00:13:38;;;;;;;8.90;3.95;;;;;;;-143.48;67.60;118439.88;5053297;28;20383;-33
2023/05/20 00:16:05;;;;;;;14.35;4.05;;;;;;;-143.48;68.17;118439.88;5035471;28;20049;-32
2023/05/20 00:18:31;;;;;;;12.45;4.25;;;;;;;-143.48;68.46;118439.88;5053681;28;20033;-34
2023/05/20 00:20:57;;;;;;;8.43;3.90;;;;;;;-143.48;68.50;118439.88;5053702;28;20021;-33
2023/05/20 00:23:22;;;;;;;9.07;4.00;;;;;;;-143.48;69.09;118439.88;5053576;28;20371;-33
2023/05/20 00:25:48;;;;;;;12.23;4.60;;;;;;;-143.48;69.20;118439.88;5053358;28;20530;-33
2023/05/20 00:28:14;;;;;;;11.70;3.75;;;;;;;-143.48;70.25;118439.88;5053814;28;20036;-33
2023/05/20 00:30:42;;;;;;;12.23;4.10;;;;;;;-143.48;69.68;118439.88;5053354;28;20021;-33
2023/05/20 00:33:08;;;;;;;12.43;4.30;;;;;;;-143.48;70.03;118439.88;5053372;28;20033;-33
2023/05/20 00:35:33;;;;;;;17.40;4.90;;;;;;;-143.48;69.94;118439.88;5053368;28;20031;-33
2023/05/20 00:37:59;;;;;;;11.27;4.25;;;;;;;-143.48;70.52;118439.88;5053464;28;20029;-33
2023/05/20 00:40:24;;;;;;;10.60;4.00;;;;;;;-143.48;70.52;118439.88;5053428;28;20540;-33
2023/05/20 00:42:50;;;;;;;14.50;4.75;;;;;;;-143.48;70.49;118439.88;5035314;28;20115;-33
2023/05/20 00:45:16;;;;;;;11.68;4.72;;;;;;;-143.48;71.32;118439.88;5055277;28;20361;-33
2023/05/20 00:47:41;;;;;;;13.85;4.50;;;;;;;-143.48;70.74;118439.88;5057921;28;20056;-33
2023/05/20 00:50:09;;;;;;;12.30;4.43;;;;;;;-143.48;70.97;118439.88;5057230;28;20057;-33
2023/05/20 00:52:36;;;;;;;12.32;4.70;;;;;;;-143.48;71.25;118439.88;5057267;28;20051;-33
2023/05/20 00:55:01;;;;;;;11.13;4.53;;;;;;;-143.48;71.26;118439.88;5057348;28;20507;-33
2023/05/20 00:57:27;;;;;;;16.48;4.68;;;;;;;-143.48;72.34;118439.88;5057035;28;20113;-33
2023/05/20 00:59:53;;;;;;;11.57;4.65;;;;;;;-143.48;72.32;118439.88;5057081;28;20032;-33
2023/05/20 01:02:18;;;;;;;11.32;4.78;;;;;;;-143.48;72.10;118439.88;5057131;28;20052;-33
2023/05/20 01:04:46;;;;;;;11.30;4.70;;;;;;;-143.48;73.02;118439.88;5057012;28;20063;-34
2023/05/20 01:07:13;;;;;;;11.50;4.53;;;;;;;-143.48;73.71;118439.88;5056864;28;20029;-33
2023/05/20 01:09:39;;;;;;;13.80;5.20;;;;;;;-143.48;73.85;118439.88;5056860;28;20048;-33
2023/05/20 01:12:19;;;;;;;15.10;5.35;;;;;;;-143.48;73.70;118439.88;5057174;28;20112;-33
2023/05/20 01:14:55;;;;;;;12.50;4.70;;;;;;;-143.48;73.95;118439.88;5056624;28;20041;-34
2023/05/20 01:17:25;;;;;;;9.65;4.97;;;;;;;-143.48;74.08;118439.88;5057013;28;20024;-32
2023/05/20 01:19:53;;;;;;;16.80;4.78;;;;;;;-143.48;73.51;118439.88;5039643;28;20100;-32
2023/05/20 01:22:23;;;;;;;11.05;4.55;;;;;;;-143.48;73.89;118439.88;5056767;28;20056;-32
2023/05/20 01:24:52;;;;;;;12.80;4.70;;;;;;;-143.48;73.95;118439.88;5057235;28;20036;-33
2023/05/20 01:27:21;;;;;;;13.27;4.43;;;;;;;-143.48;74.17;118439.88;5057167;28;20151;-33
2023/05/20 01:29:49;;;;;;;13.60;4.78;;;;;;;-143.48;74.33;118439.88;5056728;28;20100;-33
2023/05/20 01:32:20;;;;;;;13.88;4.70;;;;;;;-143.48;73.89;118439.88;5056427;28;20055;-33
2023/05/20 01:34:47;;;;;;;13.70;4.50;;;;;;;-143.48;74.09;118439.88;5056417;28;20382;-33
2023/05/20 01:37:13;;;;;;;12.35;4.63;;;;;;;-143.48;74.33;118439.88;5056398;28;20033;-33
2023/05/20 01:39:43;;;;;;;11.30;4.78;;;;;;;-143.48;74.82;118439.88;5056325;28;20025;-33
2023/05/20 01:42:09;;;;;;;11.48;4.63;;;;;;;-143.48;74.27;118439.88;5056585;28;20025;-32
2023/05/20 01:44:35;;;;;;;15.32;4.88;;;;;;;-143.48;74.37;118439.88;5056236;28;20025;-33
2023/05/20 01:47:00;;;;;;;12.02;4.68;;;;;;;-143.48;74.12;118439.88;5056782;28;20104;-33
2023/05/20 01:49:26;;;;;;;11.48;4.72;;;;;;;-143.48;73.83;118439.88;5056446;28;20075;-32
2023/05/20 01:51:51;;;;;;;13.77;4.63;;;;;;;-143.48;73.68;118439.88;5056359;28;20090;-33
2023/05/20 01:54:17;;;;;;;17.00;4.50;;;;;;;-143.48;74.38;118439.88;5055984;28;20025;-33
2023/05/20 01:56:42;;;;;;;13.15;4.45;;;;;;;-143.48;74.03;118439.88;5056199;28;20116;-33
2023/05/20 01:59:08;;;;;;;10.50;4.50;;;;;;;-143.48;74.79;118439.88;5056075;28;20047;-35
2023/05/20 02:01:33;;;;;;;10.48;4.65;;;;;;;-143.48;75.47;118439.88;5055915;28;20020;-33
2023/05/20 02:03:58;;;;;;;13.10;4.65;;;;;;;-143.48;75.41;118439.88;5056131;28;20017;-33
2023/05/20 02:06:24;;;;;;;9.15;4.60;;;;;;;-143.48;75.15;118439.88;5055881;28;20025;-33
2023/05/20 02:08:49;;;;;;;10.90;4.65;;;;;;;-143.48;74.02;118439.88;5056347;28;20016;-33
2023/05/20 02:11:15;;;;;;;8.82;4.15;;;;;;;-143.48;74.56;118439.88;5055982;28;20127;-33
2023/05/20 02:13:40;;;;;;;11.90;4.72;;;;;;;-143.48;75.30;118439.88;5055860;28;20024;-33
2023/05/20 02:16:05;;;;;;;10.18;4.43;;;;;;;-143.48;76.09;118439.88;5055501;28;20127;-33
2023/05/20 02:18:31;;;;;;;10.00;4.38;;;;;;;-143.48;76.18;118439.88;5055586;28;20035;-33
2023/05/20 02:21:02;;;;;;;11.27;4.85;;;;;;;-143.48;76.16;118439.88;5055823;28;20029;-33
2023/05/20 02:23:28;;;;;;;12.63;4.88;;;;;;;-143.48;76.06;118439.88;5055797;28;20021;-33
2023/05/20 02:25:53;;;;;;;11.48;4.90;;;;;;;-143.48;76.46;118439.88;5055397;28;20032;-33
2023/05/20 02:28:18;;;;;;;10.95;4.55;;;;;;;-143.48;76.75;118439.88;5055712;28;20459;-33
2023/05/20 02:30:44;;;;;;;10.55;4.70;;;;;;;-143.48;76.88;118439.88;5055674;28;20025;-40
2023/05/20 02:33:09;;;;;;;12.85;4.80;;;;;;;-143.48;76.67;118439.88;5055218;28;20438;-33
2023/05/20 02:35:34;;;;;;;11.60;4.75;;;;;;;-143.48;76.41;118439.88;5055156;28;20475;-33
2023/05/20 02:38:00;;;;;;;12.07;4.47;;;;;;;-143.48;77.07;118439.88;5055540;28;20029;-32
2023/05/20 02:40:25;;;;;;;10.82;4.50;;;;;;;-143.48;76.70;118439.88;5055188;28;20033;-33
2023/05/20 02:42:50;;;;;;;11.00;4.53;;;;;;;-143.48;76.46;118439.88;5037257;28;20041;-33
2023/05/20 02:45:15;;;;;;;9.80;4.63;;;;;;;-143.48;76.66;118439.88;5055310;28;20024;-33
2023/05/20 02:47:41;;;;;;;11.15;4.22;;;;;;;-143.48;76.11;118439.88;5055215;28;20036;-33
2023/05/20 02:50:07;;;;;;;9.80;4.30;;;;;;;-143.48;76.59;118439.88;5055028;28;20534;-33
2023/05/20 02:52:33;;;;;;;10.65;4.90;;;;;;;-143.48;77.17;118439.88;5055279;28;20024;-33
2023/05/20 02:54:59;;;;;;;13.23;4.60;;;;;;;-143.48;77.04;118439.88;5055135;28;20025;-33
2023/05/20 02:57:27;;;;;;;9.48;4.28;;;;;;;-143.48;77.37;118439.88;5054796;28;20492;-33
2023/05/20 02:59:52;;;;;;;9.88;4.30;;;;;;;-143.48;76.88;118439.88;5055192;28;20414;-33
2023/05/20 03:02:18;;;;;;;8.55;4.35;;;;;;;-143.48;75.89;118439.88;5055031;28;20025;-32
2023/05/20 03:04:45;;;;;;;11.90;4.30;;;;;;;-143.48;76.84;118439.88;5055005;28;20029;-33
2023/05/20 03:07:11;;;;;;;14.38;4.38;;;;;;;-143.48;76.82;118439.88;5036196;28;20025;-33
2023/05/20 03:09:36;;;;;;;10.70;4.57;;;;;;;-143.48;76.28;118439.88;5054486;28;20059;-33
2023/05/20 03:12:01;;;;;;;11.52;4.30;;;;;;;-143.48;75.75;118439.88;5054578;28;20021;-33
2023/05/20 03:14:27;;;;;;;10.13;4.38;;;;;;;-143.48;76.41;118439.88;5054266;28;20127;-33
2023/05/20 03:16:54;;;;;;;16.92;5.15;;;;;;;-143.48;76.08;118439.88;5054523;28;20021;-33
2023/05/20 03:19:20;;;;;;;14.13;4.32;;;;;;;-143.48;75.57;118439.88;5054702;28;20471;-34
2023/05/20 03:21:45;;;;;;;11.07;4.25;;;;;;;-143.48;75.74;118439.88;5054687;28;20104;-33
2023/05/20 03:24:11;;;;;;;10.18;4.38;;;;;;;-143.48;76.08;118439.88;5054305;28;20051;-34
2023/05/20 03:26:37;;;;;;;10.27;4.25;;;;;;;-143.48;76.06;118439.88;5054569;28;20094;-33
2023/05/20 03:29:03;;;;;;;11.63;4.40;;;;;;;-143.48;75.79;118439.88;5055308;28;20060;-32
2023/05/20 03:31:29;;;;;;;12.77;4.75;;;;;;;-143.48;75.39;118439.88;5054143;28;20028;-32
2023/05/20 03:33:54;;;;;;;10.70;4.40;;;;;;;-143.48;75.34;118439.88;5054371;28;20021;-33
2023/05/20 03:36:19;;;;;;;12.85;4.22;;;;;;;-143.48;75.20;118439.88;5054158;28;20486;-33
2023/05/20 03:38:45;;;;;;;10.45;4.47;;;;;;;-143.48;75.60;118439.88;5054316;28;20103;-32
2023/05/20 03:41:10;;;;;;;9.20;4.30;;;;;;;-143.48;76.25;118439.88;5037215;28;20494;-32
2023/05/20 03:43:35;;;;;;;11.50;4.45;;;;;;;-143.48;76.26;118439.88;5054265;28;20028;-32
2023/05/20 03:46:01;;;;;;;9.85;4.60;;;;;;;-143.48;76.70;118439.88;5036177;28;20496;-32
2023/05/20 03:48:26;;;;;;;8.70;4.10;;;;;;;-143.48;76.64;118439.88;5054247;28;20087;-34
2023/05/20 03:50:51;;;;;;;10.68;4.22;;;;;;;-143.48;77.07;118439.88;5054145;28;20035;-32
2023/05/20 03:53:18;;;;;;;9.88;3.92;;;;;;;-143.48;77.37;118439.88;5053680;28;20104;-32
2023/05/20 03:55:44;;;;;;;11.20;4.70;;;;;;;-143.48;77.38;118439.88;5054368;28;20109;-32
2023/05/20 03:58:12;;;;;;;10.82;4.43;;;;;;;-143.48;78.13;118439.88;5053942;28;20053;-32
2023/05/20 04:00:38;;;;;;;12.32;4.07;;;;;;;-143.48;77.96;118439.88;5053715;28;20031;-31
2023/05/20 04:03:04;;;;;;;12.43;4.15;;;;;;;-143.48;77.48;118439.88;5053805;28;20425;-32
2023/05/20 04:05:30;;;;;;;10.60;4.55;;;;;;;-143.48;77.41;118439.88;5053891;28;20486;-32
2023/05/20 04:07:56;;;;;;;8.60;4.30;;;;;;;-143.48;77.85;118439.88;5053549;28;20024;-32
2023/05/20 04:10:21;;;;;;;10.70;4.53;;;;;;;-143.48;77.56;118439.88;5053787;28;20063;-32
2023/05/20 04:12:47;;;;;;;16.48;4.80;;;;;;;-143.48;77.51;118439.88;5053645;28;20056;-32
2023/05/20 04:15:13;;;;;;;10.38;4.20;;;;;;;-143.48;77.08;118439.88;5053155;28;20084;-31
2023/05/20 04:17:39;;;;;;;14.80;4.72;;;;;;;-143.48;79.29;118439.88;5053429;28;20033;-32
2023/05/20 04:20:06;;;;;;;14.02;5.00;;;;;;;-143.48;78.48;118439.88;5053822;28;20033;-33
2023/05/20 04:22:32;;;;;;;9.93;4.40;;;;;;;-143.48;77.99;118439.88;5053736;28;20017;-32
2023/05/20 04:24:58;;;;;;;12.65;4.50;;;;;;;-143.48;77.46;118439.88;5053603;28;20078;-32
2023/05/20 04:27:24;;;;;;;16.98;4.82;;;;;;;-143.48;76.41;118439.88;5053627;28;20031;-32
2023/05/20 04:29:51;;;;;;;13.18;4.43;;;;;;;-143.48;76.40;118439.88;5053556;28;20468;-32
2023/05/20 04:32:18;;;;;;;10.27;4.80;;;;;;;-143.48;77.72;118439.88;5053477;28;20031;-33
2023/05/20 04:34:44;;;;;;;9.90;4.25;;;;;;;-143.48;77.55;118439.88;5053463;28;20515;-33
2023/05/20 04:37:10;;;;;;;9.02;3.92;;;;;;;-143.48;77.19;118439.88;5053493;28;20032;-32
2023/05/20 04:39:35;;;;;;;7.90;4.05;;;;;;;-143.48;77.21;118439.88;5053312;28;20479;-32
2023/05/20 04:42:02;;;;;;;9.63;4.40;;;;;;;-143.48;76.78;118439.88;5053161;28;20104;-33
2023/05/20 04:44:28;;;;;;;11.63;4.72;;;;;;;-143.48;77.55;118439.88;5053460;28;20032;-32
2023/05/20 04:46:54;;;;;;;11.25;4.57;;;;;;;-143.48;77.53;118439.88;5052998;28;20021;-32
2023/05/20 04:49:20;;;;;;;9.95;4.32;;;;;;;-143.48;76.83;118439.88;5053333;28;20475;-32
2023/05/20 04:51:48;;;;;;;9.02;4.72;;;;;;;-143.48;76.69;118439.88;5053137;28;20063;-33
2023/05/20 04:54:16;;;;;;;12.18;4.53;;;;;;;-143.48;77.17;118439.88;5053543;28;20029;-32
2023/05/20 04:56:42;;;;;;;12.32;4.50;;;;;;;-143.48;76.23;118439.88;5053027;28;20017;-32
2023/05/20 04:59:08;;;;;;;13.00;4.90;;;;;;;-143.48;77.51;118439.88;5053203;28;20036;-32
2023/05/20 05:01:33;;;;;;;10.07;4.30;;;;;;;-143.48;77.19;118439.88;5053232;28;20036;-32
2023/05/20 05:03:59;;;;;;;13.52;4.65;;;;;;;-143.48;76.85;118439.88;5052922;28;20468;-33
2023/05/20 05:06:24;;;;;;;10.20;4.57;;;;;;;-143.48;76.68;118439.88;5053271;28;20063;-32
2023/05/20 05:08:49;;;;;;;8.70;4.18;;;;;;;-143.48;76.26;118439.88;5053063;28;20549;-32
2023/05/20 05:11:14;;;;;;;11.50;4.30;;;;;;;-143.48;76.26;118439.88;5052880;28;20020;-33
2023/05/20 05:13:40;;;;;;;8.27;4.70;;;;;;;-143.48;76.10;118439.88;5053140;28;20029;-32
2023/05/20 05:16:05;;;;;;;12.18;4.47;;;;;;;-143.48;76.70;118439.88;5034942;28;20049;-32
2023/05/20 05:18:30;;;;;;;12.73;4.40;;;;;;;-143.48;75.25;118439.88;5053131;28;20033;-33
2023/05/20 05:21:03;;;;;;;8.00;3.90;;;;;;;-143.48;75.34;118439.88;5053056;28;20029;-33
2023/05/20 05:23:28;;;;;;;7.13;3.92;;;;;;;-143.48;75.15;118439.88;5052830;28;20079;-33
2023/05/20 05:25:54;;;;;;;10.45;4.53;;;;;;;-143.48;75.06;118439.88;5052995;28;20021;-33
2023/05/20 05:28:19;;;;;;;11.13;4.30;;;;;;;-143.48;74.19;118439.88;5052782;28;20075;-33
2023/05/20 05:30:44;;;;;;;10.05;4.35;;;;;;;-143.48;73.06;118439.88;5053828;28;20029;-33
2023/05/20 05:33:10;;;;;;;13.35;4.32;;;;;;;-143.48;73.35;118439.88;5056312;28;20108;-33
2023/05/20 05:35:35;;;;;;;7.68;4.30;;;;;;;-143.48;73.49;118439.88;5056718;28;20017;-33
2023/05/20 05:38:00;;;;;;;9.98;4.30;;;;;;;-143.48;72.29;118439.88;5056434;28;20023;-33
2023/05/20 05:40:26;;;;;;;12.88;4.88;;;;;;;-143.48;72.64;118439.88;5056414;28;20035;-33
2023/05/20 05:42:52;;;;;;;12.75;4.43;;;;;;;-143.48;73.22;118439.88;5056704;28;20085;-34
2023/05/20 05:45:24;;;;;;;9.77;4.38;;;;;;;-143.48;72.66;118439.88;5056771;28;20452;-33
2023/05/20 05:47:50;;;;;;;8.80;4.13;;;;;;;-143.48;73.70;118439.88;5038265;28;20027;-34
2023/05/20 05:50:15;;;;;;;15.00;4.03;;;;;;;-143.48;64.21;118439.88;5057229;28;20025;-33
2023/05/20 05:52:40;;;;;;;15.68;4.07;;;;;;;-143.48;57.75;118439.88;5056235;28;20459;-36
2023/05/20 05:55:07;;;;;;;12.35;4.05;;;;;;;-143.48;55.79;118439.88;5056020;28;20036;-34
2023/05/20 05:57:32;;;;;;;9.43;3.50;;;;;;;-143.48;54.64;118439.88;5056279;28;20028;-33
2023/05/20 05:59:58;;;;;;;10.95;3.75;;;;;;;-143.48;54.19;118439.88;5056065;28;20079;-33
2023/05/20 06:02:23;;;;;;;8.18;3.10;;;;;;;-143.48;53.33;118439.88;5056279;28;20016;-33
2023/05/20 06:04:48;;;;;;;10.63;3.78;;;;;;;-143.48;50.59;118439.88;5056081;28;20028;-34
2023/05/20 06:07:14;;;;;;;7.47;3.13;;;;;;;-143.48;50.44;118439.88;5056150;28;20028;-33
2023/05/20 06:09:39;;;;;;;8.65;3.60;;;;;;;-143.48;48.12;118439.88;5056186;28;20025;-34
2023/05/20 06:12:05;;;;;;;7.18;3.10;;;;;;;-143.48;46.97;118439.88;5055769;28;20032;-33
2023/05/20 06:14:31;;;;;;;13.50;3.70;;;;;;;-143.48;49.81;118439.88;5055878;28;20037;-33
2023/05/20 06:16:56;;;;;;;8.73;3.08;;;;;;;-143.48;48.86;118439.88;5056185;28;20440;-34
2023/05/20 06:19:22;;;;;;;7.45;3.22;;;;;;;-143.48;48.97;118439.88;5056208;28;20103;-33
2023/05/20 06:21:47;;;;;;;7.88;3.22;;;;;;;-143.48;46.50;118439.88;5055642;28;20021;-33
2023/05/20 06:24:12;;;;;;;6.57;3.22;;;;;;;-143.48;47.44;118439.88;5055551;28;20471;-33
2023/05/20 06:26:37;;;;;;;9.47;3.27;;;;;;;-143.48;45.78;118439.88;5055792;28;20021;-33
2023/05/20 06:29:03;;;;;;;10.50;3.33;;;;;;;-143.48;48.67;118439.88;5055480;28;20354;-33
2023/05/20 06:31:29;;;;;;;10.43;3.10;;;;;;;-143.48;48.63;118439.88;5055738;28;20082;-34
2023/05/20 06:33:54;;;;;;;8.02;3.20;;;;;;;-143.48;46.21;118439.88;5055424;28;20380;-33
2023/05/20 06:36:19;;;;;;;9.70;3.35;;;;;;;-143.48;45.79;118439.88;5055309;28;20032;-33
2023/05/20 06:38:45;;;;;;;9.77;3.60;;;;;;;-143.48;47.13;118439.88;5055802;28;20502;-33
2023/05/20 06:41:10;;;;;;;9.00;3.42;;;;;;;-143.48;47.46;118439.88;5055331;28;20547;-33
2023/05/20 06:43:36;;;;;;;5.97;3.50;;;;;;;-143.48;48.28;118439.88;5054192;28;20017;-33
2023/05/20 06:46:01;;;;;;;10.80;3.53;;;;;;;-143.48;47.29;118439.88;5055906;28;20031;-33
2023/05/20 06:48:26;;;;;;;6.93;3.40;;;;;;;-143.48;44.34;118439.88;5055609;28;20104;-33
2023/05/20 06:50:51;;;;;;;6.22;3.30;;;;;;;-143.48;46.39;118439.88;5055073;28;20021;-33
2023/05/20 06:53:17;;;;;;;10.05;3.67;;;;;;;-143.48;46.48;118439.88;5055303;28;20104;-33
2023/05/20 06:55:42;;;;;;;8.55;3.50;;;;;;;-143.48;47.09;118439.88;5055258;28;20037;-33
2023/05/20 06:58:07;;;;;;;8.52;3.45;;;;;;;-143.48;47.95;118439.88;5054953;28;20079;-33
2023/05/20 07:00:32;;;;;;;11.52;3.22;;;;;;;-143.48;46.54;118439.88;5055348;28;20036;-33
2023/05/20 07:02:58;;;;;;;10.88;3.42;;;;;;;-143.48;45.86;118439.88;5054874;28;20100;-33
2023/05/20 07:05:23;;;;;;;8.50;3.20;;;;;;;-143.48;47.14;118439.88;5054815;28;20047;-33
2023/05/20 07:07:49;;;;;;;7.30;3.35;;;;;;;-143.48;46.78;118439.88;5055117;28;20374;-34
2023/05/20 07:10:15;;;;;;;8.45;3.45;;;;;;;-143.48;47.26;118439.88;5054908;28;20426;-34
2023/05/20 07:12:40;;;;;;;6.78;3.75;;;;;;;-143.48;48.68;118439.88;5054943;28;20021;-34
2023/05/20 07:15:06;;;;;;;8.93;3.25;;;;;;;-143.48;47.39;118439.88;5054546;28;20492;-34
2023/05/20 07:17:31;;;;;;;6.40;3.40;;;;;;;-143.48;47.95;118439.88;5054616;28;20032;-33
2023/05/20 07:19:56;;;;;;;9.65;3.13;;;;;;;-143.48;46.49;118439.88;5054835;28;20375;-33
2023/05/20 07:22:22;;;;;;;8.20;3.30;;;;;;;-143.48;47.09;118439.88;5054692;28;20021;-33
2023/05/20 07:24:47;;;;;;;10.13;3.78;;;;;;;-143.48;46.74;118439.88;5054990;28;20040;-34
2023/05/20 07:27:12;;;;;;;7.53;3.42;;;;;;;-143.48;45.41;118439.88;5054449;28;20029;-33
2023/05/20 07:29:38;;;;;;;7.70;3.10;;;;;;;-143.48;47.21;118439.88;5054644;28;20073;-33
2023/05/20 07:32:06;;;;;;;7.88;3.10;;;;;;;-143.48;48.44;118439.88;5052570;28;20129;-34
2023/05/20 07:34:31;;;;;;;11.45;3.58;;;;;;;-143.48;46.88;118439.88;5052090;28;20027;-33
2023/05/20 07:36:57;;;;;;;6.25;3.20;;;;;;;-143.48;44.67;118439.88;5052398;28;20024;-33
2023/05/20 07:39:22;;;;;;;9.57;3.22;;;;;;;-143.48;44.96;118439.88;5052054;28;20029;-33
2023/05/20 07:41:48;;;;;;;6.88;3.10;;;;;;;-143.48;44.53;118439.88;5034064;28;20025;-33
2023/05/20 07:44:14;;;;;;;7.38;3.20;;;;;;;-143.48;45.29;118439.88;5051947;28;20090;-34
2023/05/20 07:46:40;;;;;;;6.63;3.10;;;;;;;-143.48;45.38;118439.88;5052210;28;20479;-33
2023/05/20 07:49:06;;;;;;;13.57;3.15;;;;;;;-143.48;44.05;118439.88;5052006;28;20025;-33
2023/05/20 07:51:31;;;;;;;7.97;3.00;;;;;;;-143.48;44.41;118439.88;5051960;28;20527;-33
2023/05/20 07:53:57;;;;;;;6.22;3.28;;;;;;;-143.48;45.41;118439.88;5051703;28;20025;-34
2023/05/20 07:56:22;;;;;;;5.13;2.97;;;;;;;-143.48;44.00;118439.88;5051750;28;20112;-33
2023/05/20 07:58:57;;;;;;;8.07;3.05;;;;;;;-143.48;44.00;118439.88;5051857;28;20078;-33
2023/05/20 08:01:22;;;;;;;4.53;2.92;;;;;;;-143.48;43.03;118439.88;5053591;28;20075;-33
2023/05/20 08:03:48;;;;;;;11.43;3.42;;;;;;;-143.48;44.21;118439.88;5052791;28;20028;-33
2023/05/20 08:06:13;;;;;;;5.72;2.65;;;;;;;-143.48;43.04;118439.88;5053782;28;20025;-33
2023/05/20 08:08:40;;;;;;;8.85;3.00;;;;;;;-143.48;44.93;118439.88;5053939;28;20017;-34
2023/05/20 08:11:05;;;;;;;6.93;3.13;;;;;;;-143.48;43.54;118439.88;5053419;28;20104;-33
2023/05/20 08:13:32;;;;;;;8.45;2.92;;;;;;;-143.48;43.32;118439.88;5054224;28;20129;-33
2023/05/20 08:15:57;;;;;;;6.22;2.67;;;;;;;-143.48;42.34;118439.88;5053143;28;20044;-33
2023/05/20 08:18:23;;;;;;;4.50;2.80;;;;;;;-143.48;43.44;118439.88;5035499;28;20033;-33
2023/05/20 08:20:48;;;;;;;11.38;2.72;;;;;;;-143.48;42.05;118439.88;5053699;28;20096;-33
2023/05/20 08:23:14;;;;;;;14.35;3.25;;;;;;;-143.48;40.87;118439.88;5053347;28;20082;-34
2023/05/20 08:25:39;;;;;;;6.22;2.90;;;;;;;-143.48;41.96;118439.88;5053585;28;20021;-35
2023/05/20 08:28:05;;;;;;;6.65;2.63;;;;;;;-143.48;41.12;118439.88;5053410;28;20027;-33
2023/05/20 08:30:31;;;;;;;7.40;2.60;;;;;;;-143.48;42.12;118439.88;5053420;28;20025;-34
2023/05/20 08:32:57;;;;;;;4.75;3.00;;;;;;;-143.48;42.58;118439.88;5053192;28;20017;-33
2023/05/20 08:35:23;;;;;;;4.82;2.50;;;;;;;-143.48;41.65;118439.88;5053913;28;20131;-34
2023/05/20 08:37:48;;;;;;;7.47;2.55;;;;;;;-143.48;41.61;118439.88;5053040;28;20029;-33
2023/05/20 08:40:14;;;;;;;7.20;2.50;;;;;;;-143.48;41.77;118439.88;5035379;28;20032;-34
2023/05/20 08:42:41;;;;;;;5.82;2.50;;;;;;;-143.48;42.52;118439.88;5053051;28;20430;-33
2023/05/20 08:45:09;;;;;;;6.55;2.55;;;;;;;-143.48;41.85;118439.88;5053026;28;20389;-33
2023/05/20 08:47:35;;;;;;;6.15;2.50;;;;;;;-143.48;40.28;118439.88;5053350;28;20387;-34
2023/05/20 08:50:01;;;;;;;6.15;2.22;;;;;;;-143.48;40.94;118439.88;5052949;28;20017;-34
2023/05/20 08:52:29;;;;;;;5.10;2.50;;;;;;;-143.48;40.35;118439.88;5053763;28;20456;-34
2023/05/20 08:54:55;;;;;;;6.03;2.30;;;;;;;-143.48;40.55;118439.88;5035406;28;20053;-33
2023/05/20 08:57:21;;;;;;;5.65;2.60;;;;;;;-143.48;40.53;118439.88;5052908;28;20475;-33
2023/05/20 08:59:46;;;;;;;14.23;2.40;;;;;;;-143.48;40.50;118439.88;5053179;28;20020;-34
2023/05/20 09:02:12;;;;;;;9.27;2.33;;;;;;;-143.48;39.14;118439.88;5053098;28;20061;-33
2023/05/20 09:04:37;;;;;;;5.97;2.38;;;;;;;-143.48;38.39;118439.88;5053124;28;20041;-33
2023/05/20 09:07:03;;;;;;;8.65;2.25;;;;;;;-143.48;39.06;118439.88;5056139;28;20025;-33
2023/05/20 09:09:29;;;;;;;9.50;2.50;;;;;;;-143.48;38.27;118439.88;5056949;28;20033;-30
2023/05/20 09:11:55;;;;;;;4.57;2.40;;;;;;;-143.48;38.77;118439.88;5057270;28;20031;-31
2023/05/20 09:14:20;;;;;;;8.55;2.50;;;;;;;-143.48;38.35;118439.88;5056533;28;20053;-31
2023/05/20 09:16:50;;;;;;;6.03;2.20;;;;;;;-143.48;39.35;118439.88;5056564;28;20089;-31
2023/05/20 09:19:16;;;;;;;4.13;2.08;;;;;;;-143.48;38.65;118439.88;5056768;28;20537;-32
2023/05/20 09:21:41;;;;;;;6.30;2.40;;;;;;;-143.48;37.52;118439.88;5057052;28;20021;-31
2023/05/20 09:24:07;;;;;;;4.25;2.13;;;;;;;-143.48;38.10;118439.88;5056459;28;20482;-31
2023/05/20 09:26:32;;;;;;;3.47;2.03;;;;;;;-143.48;38.30;118439.88;5056704;28;20052;-32
2023/05/20 09:28:58;;;;;;;6.40;2.00;;;;;;;-143.48;37.93;118439.88;5038293;28;20374;-31
2023/05/20 09:31:28;;;;;;;6.70;1.90;;;;;;;-143.48;38.24;118439.88;5056436;28;20032;-31
2023/05/20 09:33:54;;;;;;;6.63;2.10;;;;;;;-143.48;37.09;118439.88;5055859;28;20064;-30
2023/05/20 09:36:21;;;;;;;5.60;1.90;;;;;;;-143.48;37.64;118439.88;5056403;28;20051;-30
2023/05/20 09:38:51;;;;;;;6.30;1.83;;;;;;;-143.48;37.54;118439.88;5056125;28;20021;-30
2023/05/20 09:41:20;;;;;;;6.50;2.33;;;;;;;-143.48;37.02;118439.88;5056351;28;20035;-30
2023/05/20 09:43:46;;;;;;;2.75;1.83;;;;;;;-143.48;37.36;118439.88;5055893;28;20126;-30
2023/05/20 09:46:12;;;;;;;13.20;2.28;;;;;;;-143.48;37.53;118439.88;5055797;28;20115;-30
2023/05/20 09:48:38;;;;;;;6.85;1.83;;;;;;;-143.48;37.67;118439.88;5038017;28;20021;-30
2023/05/20 09:51:05;;;;;;;7.00;1.90;;;;;;;-143.48;36.62;118439.88;5055522;28;20024;-30
2023/05/20 09:53:31;;;;;;;10.43;2.20;;;;;;;-143.48;35.95;118439.88;5056118;28;20029;-30
2023/05/20 09:55:57;;;;;;;4.35;1.92;;;;;;;-143.48;36.59;118439.88;5055853;28;20494;-30
2023/05/20 09:58:23;;;;;;;4.50;2.03;;;;;;;-143.48;36.61;118439.88;5056407;28;20032;-31
2023/05/20 10:00:48;;;;;;;6.40;2.30;;;;;;;-143.48;36.51;118439.88;5056201;28;20016;-30
2023/05/20 10:03:14;;;;;;;4.32;2.15;;;;;;;-143.48;36.93;118439.88;5055782;28;20025;-30
2023/05/20 10:05:47;;;;;;;10.38;2.30;;;;;;;-143.48;36.81;118439.88;5056079;28;20071;-30
2023/05/20 10:08:41;;;;;;;4.30;2.53;;;;;;;-143.48;36.55;118439.88;5056356;28;20036;-31
2023/05/20 10:11:21;;;;;;;5.18;2.28;;;;;;;-143.48;36.75;118439.88;5056317;28;20191;-30
2023/05/20 10:14:16;;;;;;;6.63;2.13;;;;;;;-143.48;36.74;118439.88;5056080;28;20029;-30
2023/05/20 10:16:55;;;;;;;6.43;2.20;;;;;;;-143.48;36.95;118439.88;5055560;28;20451;-30
2023/05/20 10:19:26;;;;;;;4.22;2.20;;;;;;;-143.48;35.43;118439.88;5055825;28;20020;-29
2023/05/20 10:22:08;;;;;;;6.20;2.25;;;;;;;-143.48;35.68;118439.88;5056328;28;20029;-30
2023/05/20 10:24:37;;;;;;;4.15;2.08;;;;;;;-143.48;35.63;118439.88;5055019;28;20074;-30
2023/05/20 10:27:07;;;;;;;5.30;2.13;;;;;;;-143.48;35.61;118439.88;5055632;28;20025;-30
2023/05/20 10:29:42;;;;;;;5.63;2.05;;;;;;;-143.48;35.69;118439.88;5055381;28;20020;-30
2023/05/20 10:32:07;;;;;;;5.60;1.90;;;;;;;-143.48;35.58;118439.88;5055305;28;20048;-30
2023/05/20 10:34:44;;;;;;;5.18;2.15;;;;;;;-143.48;35.33;118439.88;5055227;28;20428;-30
2023/05/20 10:37:21;;;;;;;5.15;2.17;;;;;;;-143.48;35.94;118439.88;5055434;28;20083;-34
2023/05/20 10:39:47;;;;;;;2.85;1.85;;;;;;;-143.48;35.33;118439.88;5055032;28;20052;-35
2023/05/20 10:42:12;;;;;;;7.75;2.10;;;;;;;-143.48;35.27;118439.88;5055772;28;20029;-34
2023/05/20 10:44:46;;;;;;;4.75;2.15;;;;;;;-143.48;35.51;118439.88;5055451;28;20025;-33
2023/05/20 10:47:12;;;;;;;5.07;1.92;;;;;;;-143.48;35.26;118439.88;5053396;28;20032;-33
2023/05/20 10:49:47;;;;;;;7.03;2.22;;;;;;;-143.48;35.60;118439.88;5052864;28;20021;-31
2023/05/20 10:52:13;;;;;;;4.03;2.10;;;;;;;-143.48;35.71;118439.88;5052935;28;20056;-31
2023/05/20 10:54:44;;;;;;;3.58;2.17;;;;;;;-143.48;35.90;118439.88;5052804;28;20013;-31
2023/05/20 10:57:10;;;;;;;3.88;2.03;;;;;;;-143.48;35.48;118439.88;5053091;28;20036;-31
2023/05/20 10:59:36;;;;;;;6.95;2.08;;;;;;;-143.48;35.70;118439.88;5052997;28;20375;-31
2023/05/20 11:02:02;;;;;;;6.38;2.30;;;;;;;-143.48;35.84;118439.88;5053963;28;20031;-31